sensor_id;sensor_type;location;lat;lon;timestamp;temperature;humidity
935;DHT22;454;53.254;10.400;2023-12-22T05:00:33;3.30;99.90
935;DHT22;454;53.254;10.400;2023-12-22T05:03:00;3.40;99.90
935;DHT22;454;53.254;10.400;2023-12-22T05:05:27;3.40;99.90
935;DHT22;454;53.254;10.400;2023-12-22T05:07:53;3.50;99.90
935;DHT22;454;53.254;10.400;2023-12-22T05:10:20;3.50;99.90
935;DHT22;454;53.254;10.400;2023-12-22T05:12:47;3.50;99.90
935;DHT22;454;53.254;10.400;2023-12-22T05:15:14;3.60;99.90
935;DHT22;454;53.254;10.400;2023-12-22T05:17:42;3.60;99.90
935;DHT22;454;53.254;10.400;2023-12-22T05:20:09;3.60;99.90
935;DHT22;454;53.254;10.400;2023-12-22T05:22:36;3.60;99.90
935;DHT22;454;53.254;10.400;2023-12-22T05:25:04;3.60;99.90
935;DHT22;454;53.254;10.400;2023-12-22T05:27:31;3.70;99.90
935;DHT22;454;53.254;10.400;2023-12-22T05:29:58;3.70;99.90
935;DHT22;454;53.254;10.400;2023-12-22T05:32:26;3.80;99.90
935;DHT22;454;53.254;10.400;2023-12-22T05:34:55;3.80;99.90
935;DHT22;454;53.254;10.400;2023-12-22T05:37:21;3.90;99.90
935;DHT22;454;53.254;10.400;2023-12-22T05:39:48;3.90;99.90
935;DHT22;454;53.254;10.400;2023-12-22T05:42:15;3.90;99.90
935;DHT22;454;53.254;10.400;2023-12-22T05:44:42;4.00;99.90
935;DHT22;454;53.254;10.400;2023-12-22T05:47:08;4.00;99.90
935;DHT22;454;53.254;10.400;2023-12-22T05:49:36;4.00;99.90
935;DHT22;454;53.254;10.400;2023-12-22T05:52:05;4.10;99.90
935;DHT22;454;53.254;10.400;2023-12-22T05:54:31;4.00;99.90
935;DHT22;454;53.254;10.400;2023-12-22T05:56:58;4.00;99.90
935;DHT22;454;53.254;10.400;2023-12-22T05:59:25;4.00;99.90
935;DHT22;454;53.254;10.400;2023-12-22T06:01:53;4.00;99.90
935;DHT22;454;53.254;10.400;2023-12-22T06:04:20;3.90;99.90
935;DHT22;454;53.254;10.400;2023-12-22T06:06:46;3.90;99.90
935;DHT22;454;53.254;10.400;2023-12-22T06:09:15;3.90;99.90
935;DHT22;454;53.254;10.400;2023-12-22T06:11:43;3.90;99.90
935;DHT22;454;53.254;10.400;2023-12-22T06:14:10;4.00;99.90
935;DHT22;454;53.254;10.400;2023-12-22T06:16:37;3.90;99.90
935;DHT22;454;53.254;10.400;2023-12-22T06:19:03;3.90;99.90
935;DHT22;454;53.254;10.400;2023-12-22T06:21:30;3.80;99.90
935;DHT22;454;53.254;10.400;2023-12-22T06:23:57;3.60;99.90
935;DHT22;454;53.254;10.400;2023-12-22T06:26:25;3.50;99.90
935;DHT22;454;53.254;10.400;2023-12-22T06:28:52;3.40;99.90
935;DHT22;454;53.254;10.400;2023-12-22T06:31:20;3.40;99.90
935;DHT22;454;53.254;10.400;2023-12-22T06:33:48;3.40;99.90
935;DHT22;454;53.254;10.400;2023-12-22T06:36:18;3.50;99.90
935;DHT22;454;53.254;10.400;2023-12-22T06:38:45;3.50;99.90
935;DHT22;454;53.254;10.400;2023-12-22T06:41:19;3.40;99.90
935;DHT22;454;53.254;10.400;2023-12-22T06:43:47;3.40;99.90
935;DHT22;454;53.254;10.400;2023-12-22T06:46:17;3.40;99.90
935;DHT22;454;53.254;10.400;2023-12-22T06:48:44;3.30;99.90
935;DHT22;454;53.254;10.400;2023-12-22T06:51:17;3.30;99.90
935;DHT22;454;53.254;10.400;2023-12-22T06:53:44;3.30;99.90
935;DHT22;454;53.254;10.400;2023-12-22T06:56:15;3.30;99.90
935;DHT22;454;53.254;10.400;2023-12-22T06:58:42;3.40;99.90
935;DHT22;454;53.254;10.400;2023-12-22T07:01:10;3.40;99.90
935;DHT22;454;53.254;10.400;2023-12-22T07:03:37;3.40;99.90
935;DHT22;454;53.254;10.400;2023-12-22T07:06:04;3.40;99.90
935;DHT22;454;53.254;10.400;2023-12-22T07:08:31;3.30;99.90
935;DHT22;454;53.254;10.400;2023-12-22T07:10:58;3.30;99.90
935;DHT22;454;53.254;10.400;2023-12-22T07:13:25;3.20;99.90
935;DHT22;454;53.254;10.400;2023-12-22T07:15:52;3.10;99.90
935;DHT22;454;53.254;10.400;2023-12-22T07:18:20;3.10;99.90
935;DHT22;454;53.254;10.400;2023-12-22T07:20:46;3.10;99.90
935;DHT22;454;53.254;10.400;2023-12-22T07:23:14;3.10;99.90
935;DHT22;454;53.254;10.400;2023-12-22T07:25:41;3.10;99.90
935;DHT22;454;53.254;10.400;2023-12-22T07:28:07;3.20;99.90
935;DHT22;454;53.254;10.400;2023-12-22T07:30:34;3.20;99.90
935;DHT22;454;53.254;10.400;2023-12-22T07:33:01;3.30;99.90
935;DHT22;454;53.254;10.400;2023-12-22T07:35:29;3.40;99.90
935;DHT22;454;53.254;10.400;2023-12-22T07:37:55;3.40;99.90
935;DHT22;454;53.254;10.400;2023-12-22T07:40:22;3.40;99.90
935;DHT22;454;53.254;10.400;2023-12-22T07:42:49;3.40;99.90
935;DHT22;454;53.254;10.400;2023-12-22T07:45:17;3.40;99.90
935;DHT22;454;53.254;10.400;2023-12-22T07:47:43;3.40;99.90
935;DHT22;454;53.254;10.400;2023-12-22T07:50:11;3.40;99.90
935;DHT22;454;53.254;10.400;2023-12-22T07:52:40;3.50;99.90
935;DHT22;454;53.254;10.400;2023-12-22T07:55:07;3.60;99.90
935;DHT22;454;53.254;10.400;2023-12-22T07:57:35;3.70;99.90
935;DHT22;454;53.254;10.400;2023-12-22T08:00:03;3.80;99.90
935;DHT22;454;53.254;10.400;2023-12-22T08:02:30;3.80;99.90
935;DHT22;454;53.254;10.400;2023-12-22T08:04:57;3.80;99.90
935;DHT22;454;53.254;10.400;2023-12-22T08:07:24;3.80;99.90
935;DHT22;454;53.254;10.400;2023-12-22T08:09:52;3.70;99.90
935;DHT22;454;53.254;10.400;2023-12-22T08:12:18;3.50;99.90
935;DHT22;454;53.254;10.400;2023-12-22T08:14:45;3.40;99.90
935;DHT22;454;53.254;10.400;2023-12-22T08:17:12;3.40;99.90
935;DHT22;454;53.254;10.400;2023-12-22T08:19:39;3.40;99.90
935;DHT22;454;53.254;10.400;2023-12-22T08:22:08;3.40;99.90
935;DHT22;454;53.254;10.400;2023-12-22T08:24:35;3.40;99.90
935;DHT22;454;53.254;10.400;2023-12-22T08:27:03;3.40;99.90
935;DHT22;454;53.254;10.400;2023-12-22T08:29:30;3.40;99.90
935;DHT22;454;53.254;10.400;2023-12-22T08:32:06;3.40;99.90
935;DHT22;454;53.254;10.400;2023-12-22T08:34:46;3.40;99.90
935;DHT22;454;53.254;10.400;2023-12-22T08:37:29;3.50;99.90
935;DHT22;454;53.254;10.400;2023-12-22T08:40:01;3.50;99.90
935;DHT22;454;53.254;10.400;2023-12-22T08:42:36;3.60;99.90
935;DHT22;454;53.254;10.400;2023-12-22T08:45:10;3.60;99.90
935;DHT22;454;53.254;10.400;2023-12-22T08:47:41;3.70;99.90
935;DHT22;454;53.254;10.400;2023-12-22T08:50:13;3.70;99.90
935;DHT22;454;53.254;10.400;2023-12-22T08:52:46;3.80;99.90
935;DHT22;454;53.254;10.400;2023-12-22T08:55:16;3.80;99.90
935;DHT22;454;53.254;10.400;2023-12-22T08:57:54;3.80;99.90
935;DHT22;454;53.254;10.400;2023-12-22T09:00:32;3.80;99.90
935;DHT22;454;53.254;10.400;2023-12-22T09:03:01;3.80;99.90
935;DHT22;454;53.254;10.400;2023-12-22T09:05:30;3.80;99.90
935;DHT22;454;53.254;10.400;2023-12-22T09:08:05;3.80;99.90
935;DHT22;454;53.254;10.400;2023-12-22T09:10:41;3.80;99.90
935;DHT22;454;53.254;10.400;2023-12-22T09:13:13;3.80;99.90
935;DHT22;454;53.254;10.400;2023-12-22T09:15:48;3.90;99.90
935;DHT22;454;53.254;10.400;2023-12-22T09:18:16;3.90;99.90
935;DHT22;454;53.254;10.400;2023-12-22T09:21:04;3.90;99.90
935;DHT22;454;53.254;10.400;2023-12-22T09:23:42;4.00;99.90
935;DHT22;454;53.254;10.400;2023-12-22T09:26:21;4.10;99.90
935;DHT22;454;53.254;10.400;2023-12-22T09:29:04;4.20;99.90
935;DHT22;454;53.254;10.400;2023-12-22T09:31:31;4.30;99.90
935;DHT22;454;53.254;10.400;2023-12-22T09:33:59;4.30;99.90
935;DHT22;454;53.254;10.400;2023-12-22T09:36:28;4.40;99.90
935;DHT22;454;53.254;10.400;2023-12-22T09:39:00;4.40;99.90
935;DHT22;454;53.254;10.400;2023-12-22T09:41:30;4.40;99.90
935;DHT22;454;53.254;10.400;2023-12-22T09:44:01;4.40;99.90
935;DHT22;454;53.254;10.400;2023-12-22T09:46:36;4.50;99.90
935;DHT22;454;53.254;10.400;2023-12-22T09:49:09;4.60;99.90
935;DHT22;454;53.254;10.400;2023-12-22T09:51:39;4.50;99.90
935;DHT22;454;53.254;10.400;2023-12-22T09:54:10;4.50;99.90
935;DHT22;454;53.254;10.400;2023-12-22T09:56:40;4.50;99.90
935;DHT22;454;53.254;10.400;2023-12-22T09:59:14;4.50;99.90
935;DHT22;454;53.254;10.400;2023-12-22T10:01:47;4.60;99.90
935;DHT22;454;53.254;10.400;2023-12-22T10:04:19;4.60;99.90
935;DHT22;454;53.254;10.400;2023-12-22T10:06:48;4.60;99.90
935;DHT22;454;53.254;10.400;2023-12-22T10:09:22;4.60;99.90
935;DHT22;454;53.254;10.400;2023-12-22T10:11:52;4.70;99.90
935;DHT22;454;53.254;10.400;2023-12-22T10:14:22;4.70;99.90
935;DHT22;454;53.254;10.400;2023-12-22T10:16:51;4.70;99.90
935;DHT22;454;53.254;10.400;2023-12-22T10:19:30;4.80;99.90
935;DHT22;454;53.254;10.400;2023-12-22T10:22:17;4.90;99.90
935;DHT22;454;53.254;10.400;2023-12-22T10:24:52;5.00;99.90
935;DHT22;454;53.254;10.400;2023-12-22T10:27:23;5.10;99.90
935;DHT22;454;53.254;10.400;2023-12-22T10:30:04;5.30;99.90
935;DHT22;454;53.254;10.400;2023-12-22T10:32:45;5.40;99.90
935;DHT22;454;53.254;10.400;2023-12-22T10:35:38;5.40;99.90
935;DHT22;454;53.254;10.400;2023-12-22T10:38:23;5.40;99.90
935;DHT22;454;53.254;10.400;2023-12-22T10:41:02;5.40;99.90
935;DHT22;454;53.254;10.400;2023-12-22T10:43:36;5.50;99.90
935;DHT22;454;53.254;10.400;2023-12-22T10:46:26;5.50;99.90
935;DHT22;454;53.254;10.400;2023-12-22T10:48:59;5.40;99.90
935;DHT22;454;53.254;10.400;2023-12-22T10:51:30;5.40;99.90
935;DHT22;454;53.254;10.400;2023-12-22T10:53:59;5.40;99.90
935;DHT22;454;53.254;10.400;2023-12-22T10:56:32;5.40;99.90
935;DHT22;454;53.254;10.400;2023-12-22T10:59:18;5.40;99.90
935;DHT22;454;53.254;10.400;2023-12-22T11:01:54;5.40;99.90
935;DHT22;454;53.254;10.400;2023-12-22T11:04:29;5.40;99.90
935;DHT22;454;53.254;10.400;2023-12-22T11:07:05;5.30;99.90
935;DHT22;454;53.254;10.400;2023-12-22T11:09:39;5.30;99.90
935;DHT22;454;53.254;10.400;2023-12-22T11:12:13;5.10;99.90
935;DHT22;454;53.254;10.400;2023-12-22T11:14:46;5.10;99.90
935;DHT22;454;53.254;10.400;2023-12-22T11:17:21;5.00;99.90
935;DHT22;454;53.254;10.400;2023-12-22T11:19:56;4.90;99.90
935;DHT22;454;53.254;10.400;2023-12-22T11:22:31;4.90;99.90
935;DHT22;454;53.254;10.400;2023-12-22T11:25:17;4.90;99.90
935;DHT22;454;53.254;10.400;2023-12-22T11:27:47;4.90;99.90
935;DHT22;454;53.254;10.400;2023-12-22T11:30:23;4.90;99.90
935;DHT22;454;53.254;10.400;2023-12-22T11:32:54;4.80;99.90
935;DHT22;454;53.254;10.400;2023-12-22T11:35:27;4.70;99.90
935;DHT22;454;53.254;10.400;2023-12-22T11:38:10;4.70;99.90
935;DHT22;454;53.254;10.400;2023-12-22T11:40:43;4.80;99.90
935;DHT22;454;53.254;10.400;2023-12-22T11:43:16;4.70;99.90
935;DHT22;454;53.254;10.400;2023-12-22T11:46:01;4.70;99.90
935;DHT22;454;53.254;10.400;2023-12-22T11:48:30;4.60;99.90
935;DHT22;454;53.254;10.400;2023-12-22T11:51:03;4.50;99.90
935;DHT22;454;53.254;10.400;2023-12-22T11:53:45;4.50;99.90
935;DHT22;454;53.254;10.400;2023-12-22T11:56:12;4.40;99.90
935;DHT22;454;53.254;10.400;2023-12-22T11:58:47;4.30;99.90
935;DHT22;454;53.254;10.400;2023-12-22T12:01:21;4.30;99.90
935;DHT22;454;53.254;10.400;2023-12-22T12:03:56;4.20;99.90
935;DHT22;454;53.254;10.400;2023-12-22T12:06:34;4.10;99.90
935;DHT22;454;53.254;10.400;2023-12-22T12:09:04;4.10;99.90
935;DHT22;454;53.254;10.400;2023-12-22T12:12:11;4.10;99.90
935;DHT22;454;53.254;10.400;2023-12-22T12:14:41;4.10;99.90
935;DHT22;454;53.254;10.400;2023-12-22T12:17:09;4.10;99.90
935;DHT22;454;53.254;10.400;2023-12-22T12:19:40;4.10;99.90
935;DHT22;454;53.254;10.400;2023-12-22T12:22:07;4.20;99.90
935;DHT22;454;53.254;10.400;2023-12-22T12:24:36;4.20;99.90
935;DHT22;454;53.254;10.400;2023-12-22T12:27:03;4.20;99.90
935;DHT22;454;53.254;10.400;2023-12-22T12:29:31;4.30;99.90
935;DHT22;454;53.254;10.400;2023-12-22T12:32:03;4.30;99.90
935;DHT22;454;53.254;10.400;2023-12-22T12:34:30;4.30;99.90
935;DHT22;454;53.254;10.400;2023-12-22T12:36:59;4.40;99.90
935;DHT22;454;53.254;10.400;2023-12-22T12:39:29;3.90;99.90
935;DHT22;454;53.254;10.400;2023-12-22T12:41:59;4.50;99.90
935;DHT22;454;53.254;10.400;2023-12-22T12:44:27;4.50;99.90
935;DHT22;454;53.254;10.400;2023-12-22T12:46:54;4.50;99.90
935;DHT22;454;53.254;10.400;2023-12-22T12:49:20;4.50;99.90
935;DHT22;454;53.254;10.400;2023-12-22T12:51:52;4.50;99.90
935;DHT22;454;53.254;10.400;2023-12-22T12:54:20;4.50;99.90
935;DHT22;454;53.254;10.400;2023-12-22T12:56:47;4.50;99.90
935;DHT22;454;53.254;10.400;2023-12-22T12:59:16;4.50;99.90
935;DHT22;454;53.254;10.400;2023-12-22T13:01:44;4.50;99.90
935;DHT22;454;53.254;10.400;2023-12-22T13:04:11;4.50;99.90
935;DHT22;454;53.254;10.400;2023-12-22T13:06:43;4.50;99.90
935;DHT22;454;53.254;10.400;2023-12-22T13:09:10;4.60;99.90
935;DHT22;454;53.254;10.400;2023-12-22T13:11:40;4.60;99.90
935;DHT22;454;53.254;10.400;2023-12-22T13:14:07;4.60;99.90
935;DHT22;454;53.254;10.400;2023-12-22T13:16:34;4.60;99.90
935;DHT22;454;53.254;10.400;2023-12-22T13:19:01;4.70;99.90
935;DHT22;454;53.254;10.400;2023-12-22T13:21:28;4.60;99.90
935;DHT22;454;53.254;10.400;2023-12-22T13:24:08;4.70;99.90
935;DHT22;454;53.254;10.400;2023-12-22T13:26:35;4.70;99.90
935;DHT22;454;53.254;10.400;2023-12-22T13:29:03;4.70;99.90
935;DHT22;454;53.254;10.400;2023-12-22T13:31:30;4.70;99.90
935;DHT22;454;53.254;10.400;2023-12-22T13:33:58;4.70;99.90
935;DHT22;454;53.254;10.400;2023-12-22T13:36:25;4.70;99.90
935;DHT22;454;53.254;10.400;2023-12-22T13:38:52;4.80;99.90
935;DHT22;454;53.254;10.400;2023-12-22T13:41:19;4.80;99.90
935;DHT22;454;53.254;10.400;2023-12-22T13:43:46;4.80;99.90
935;DHT22;454;53.254;10.400;2023-12-22T13:46:14;4.80;99.90
935;DHT22;454;53.254;10.400;2023-12-22T13:48:41;4.80;99.90
935;DHT22;454;53.254;10.400;2023-12-22T13:51:08;4.80;99.90
935;DHT22;454;53.254;10.400;2023-12-22T13:53:35;4.80;99.90
935;DHT22;454;53.254;10.400;2023-12-22T13:56:12;4.80;99.90
935;DHT22;454;53.254;10.400;2023-12-22T13:58:43;4.80;99.90
935;DHT22;454;53.254;10.400;2023-12-22T14:01:14;4.80;99.90
935;DHT22;454;53.254;10.400;2023-12-22T14:03:41;4.80;99.90
935;DHT22;454;53.254;10.400;2023-12-22T14:06:08;4.80;99.90
935;DHT22;454;53.254;10.400;2023-12-22T14:08:38;4.70;99.90
935;DHT22;454;53.254;10.400;2023-12-22T14:11:05;4.70;99.90
935;DHT22;454;53.254;10.400;2023-12-22T14:13:32;4.70;99.90
935;DHT22;454;53.254;10.400;2023-12-22T14:16:01;4.70;99.90
935;DHT22;454;53.254;10.400;2023-12-22T14:18:29;4.70;99.90
935;DHT22;454;53.254;10.400;2023-12-22T14:20:55;4.80;99.90
935;DHT22;454;53.254;10.400;2023-12-22T14:23:22;4.80;99.90
935;DHT22;454;53.254;10.400;2023-12-22T14:25:49;4.70;99.90
935;DHT22;454;53.254;10.400;2023-12-22T14:28:15;4.90;99.90
935;DHT22;454;53.254;10.400;2023-12-22T14:30:42;4.90;99.90
935;DHT22;454;53.254;10.400;2023-12-22T14:33:09;5.20;99.90
935;DHT22;454;53.254;10.400;2023-12-22T14:35:37;5.10;99.90
935;DHT22;454;53.254;10.400;2023-12-22T14:38:04;5.10;99.90
935;DHT22;454;53.254;10.400;2023-12-22T14:40:30;5.10;99.90
935;DHT22;454;53.254;10.400;2023-12-22T14:42:58;5.10;99.90
935;DHT22;454;53.254;10.400;2023-12-22T14:45:27;5.00;99.90
935;DHT22;454;53.254;10.400;2023-12-22T14:47:54;5.00;99.90
935;DHT22;454;53.254;10.400;2023-12-22T14:50:21;5.00;99.90
935;DHT22;454;53.254;10.400;2023-12-22T14:52:49;5.00;99.90
935;DHT22;454;53.254;10.400;2023-12-22T14:55:16;4.90;99.90
935;DHT22;454;53.254;10.400;2023-12-22T14:57:43;4.90;99.90
935;DHT22;454;53.254;10.400;2023-12-22T15:00:11;4.80;99.90
935;DHT22;454;53.254;10.400;2023-12-22T15:02:38;4.80;99.90
935;DHT22;454;53.254;10.400;2023-12-22T15:05:05;4.80;99.90
935;DHT22;454;53.254;10.400;2023-12-22T15:07:31;4.80;99.90
935;DHT22;454;53.254;10.400;2023-12-22T15:10:00;4.70;99.90
935;DHT22;454;53.254;10.400;2023-12-22T15:12:29;4.60;99.90
935;DHT22;454;53.254;10.400;2023-12-22T15:14:58;4.60;99.90
935;DHT22;454;53.254;10.400;2023-12-22T15:17:25;4.50;99.90
935;DHT22;454;53.254;10.400;2023-12-22T15:19:52;4.50;99.90
935;DHT22;454;53.254;10.400;2023-12-22T15:22:18;4.50;99.90
935;DHT22;454;53.254;10.400;2023-12-22T15:24:47;4.50;99.90
935;DHT22;454;53.254;10.400;2023-12-22T15:27:15;4.50;99.90
935;DHT22;454;53.254;10.400;2023-12-22T15:29:44;4.50;99.90
935;DHT22;454;53.254;10.400;2023-12-22T15:35:00;4.40;99.90
935;DHT22;454;53.254;10.400;2023-12-22T15:37:30;4.40;99.90
935;DHT22;454;53.254;10.400;2023-12-22T15:40:01;4.40;99.90
935;DHT22;454;53.254;10.400;2023-12-22T15:42:31;4.30;99.90
935;DHT22;454;53.254;10.400;2023-12-22T15:44:59;4.40;99.90
935;DHT22;454;53.254;10.400;2023-12-22T15:47:28;4.40;99.90
935;DHT22;454;53.254;10.400;2023-12-22T15:49:55;4.40;99.90
935;DHT22;454;53.254;10.400;2023-12-22T15:52:22;4.40;99.90
935;DHT22;454;53.254;10.400;2023-12-22T15:54:49;4.40;99.90
935;DHT22;454;53.254;10.400;2023-12-22T15:57:16;4.40;99.90
935;DHT22;454;53.254;10.400;2023-12-22T15:59:44;4.40;99.90
935;DHT22;454;53.254;10.400;2023-12-22T16:02:11;4.40;99.90
935;DHT22;454;53.254;10.400;2023-12-22T16:04:38;4.40;99.90
935;DHT22;454;53.254;10.400;2023-12-22T16:07:06;4.40;99.90
935;DHT22;454;53.254;10.400;2023-12-22T16:09:34;4.40;99.90
935;DHT22;454;53.254;10.400;2023-12-22T16:12:00;4.30;99.90
935;DHT22;454;53.254;10.400;2023-12-22T16:14:28;4.30;99.90
935;DHT22;454;53.254;10.400;2023-12-22T16:16:56;4.30;99.90
935;DHT22;454;53.254;10.400;2023-12-22T16:19:23;4.30;99.90
935;DHT22;454;53.254;10.400;2023-12-22T16:21:49;4.30;99.90
935;DHT22;454;53.254;10.400;2023-12-22T16:24:17;4.30;99.90
935;DHT22;454;53.254;10.400;2023-12-22T16:26:44;4.30;99.90
935;DHT22;454;53.254;10.400;2023-12-22T16:29:11;4.30;99.90
935;DHT22;454;53.254;10.400;2023-12-22T16:31:39;4.30;99.90
935;DHT22;454;53.254;10.400;2023-12-22T16:34:07;4.40;99.90
935;DHT22;454;53.254;10.400;2023-12-22T16:36:34;4.40;99.90
935;DHT22;454;53.254;10.400;2023-12-22T16:39:00;4.40;99.90
935;DHT22;454;53.254;10.400;2023-12-22T16:41:27;4.40;99.90
935;DHT22;454;53.254;10.400;2023-12-22T16:43:54;4.40;99.90
935;DHT22;454;53.254;10.400;2023-12-22T16:46:20;4.40;99.90
935;DHT22;454;53.254;10.400;2023-12-22T16:48:46;4.40;99.90
935;DHT22;454;53.254;10.400;2023-12-22T16:51:14;4.40;99.90
935;DHT22;454;53.254;10.400;2023-12-22T16:53:41;4.40;99.90
935;DHT22;454;53.254;10.400;2023-12-22T16:56:08;4.40;99.90
935;DHT22;454;53.254;10.400;2023-12-22T16:58:36;4.40;99.90
935;DHT22;454;53.254;10.400;2023-12-22T17:01:03;4.40;99.90
935;DHT22;454;53.254;10.400;2023-12-22T17:03:29;4.50;99.90
935;DHT22;454;53.254;10.400;2023-12-22T17:05:58;4.50;99.90
935;DHT22;454;53.254;10.400;2023-12-22T17:08:28;4.50;99.90
935;DHT22;454;53.254;10.400;2023-12-22T17:10:54;4.50;99.90
935;DHT22;454;53.254;10.400;2023-12-22T17:13:21;4.40;99.90
935;DHT22;454;53.254;10.400;2023-12-22T17:15:48;4.40;99.90
935;DHT22;454;53.254;10.400;2023-12-22T17:18:14;4.40;99.90
935;DHT22;454;53.254;10.400;2023-12-22T17:20:41;4.40;99.90
935;DHT22;454;53.254;10.400;2023-12-22T17:23:08;4.30;99.90
935;DHT22;454;53.254;10.400;2023-12-22T17:25:36;4.30;99.90
935;DHT22;454;53.254;10.400;2023-12-22T17:28:03;4.30;99.90
935;DHT22;454;53.254;10.400;2023-12-22T17:30:30;4.30;99.90
935;DHT22;454;53.254;10.400;2023-12-22T17:32:57;4.30;99.90
935;DHT22;454;53.254;10.400;2023-12-22T17:35:23;4.30;99.90
935;DHT22;454;53.254;10.400;2023-12-22T17:37:50;4.30;99.90
935;DHT22;454;53.254;10.400;2023-12-22T17:40:17;4.30;99.90
935;DHT22;454;53.254;10.400;2023-12-22T17:42:45;4.30;99.90
935;DHT22;454;53.254;10.400;2023-12-22T17:45:14;4.30;99.90
935;DHT22;454;53.254;10.400;2023-12-22T17:47:41;4.30;99.90
935;DHT22;454;53.254;10.400;2023-12-22T17:50:08;4.30;99.90
935;DHT22;454;53.254;10.400;2023-12-22T17:52:35;4.20;99.90
935;DHT22;454;53.254;10.400;2023-12-22T17:55:01;4.20;99.90
935;DHT22;454;53.254;10.400;2023-12-22T17:57:30;4.20;99.90
935;DHT22;454;53.254;10.400;2023-12-22T17:59:58;4.30;99.90
935;DHT22;454;53.254;10.400;2023-12-22T18:02:24;4.20;99.90
935;DHT22;454;53.254;10.400;2023-12-22T18:04:51;4.30;99.90
935;DHT22;454;53.254;10.400;2023-12-22T18:07:18;4.30;99.90
935;DHT22;454;53.254;10.400;2023-12-22T18:09:45;4.30;99.90
935;DHT22;454;53.254;10.400;2023-12-22T18:12:11;4.30;99.90
935;DHT22;454;53.254;10.400;2023-12-22T18:14:38;4.30;99.90
935;DHT22;454;53.254;10.400;2023-12-22T18:17:06;4.30;99.90
935;DHT22;454;53.254;10.400;2023-12-22T18:19:33;4.30;99.90
935;DHT22;454;53.254;10.400;2023-12-22T18:22:00;4.30;99.90
935;DHT22;454;53.254;10.400;2023-12-22T18:24:27;4.30;99.90
935;DHT22;454;53.254;10.400;2023-12-22T18:26:53;4.30;99.90
935;DHT22;454;53.254;10.400;2023-12-22T18:29:20;4.30;99.90
935;DHT22;454;53.254;10.400;2023-12-22T18:31:47;4.30;99.90
935;DHT22;454;53.254;10.400;2023-12-22T18:34:16;4.30;99.90
935;DHT22;454;53.254;10.400;2023-12-22T18:36:42;4.20;99.90
935;DHT22;454;53.254;10.400;2023-12-22T18:39:09;4.20;99.90
935;DHT22;454;53.254;10.400;2023-12-22T18:41:37;4.20;99.90
935;DHT22;454;53.254;10.400;2023-12-22T18:44:03;4.20;99.90
935;DHT22;454;53.254;10.400;2023-12-22T18:46:30;4.20;99.90
935;DHT22;454;53.254;10.400;2023-12-22T18:48:58;4.20;99.90
935;DHT22;454;53.254;10.400;2023-12-22T18:51:26;4.20;99.90
935;DHT22;454;53.254;10.400;2023-12-22T18:53:53;4.20;99.90
935;DHT22;454;53.254;10.400;2023-12-22T18:56:20;4.20;99.90
935;DHT22;454;53.254;10.400;2023-12-22T18:58:48;4.20;99.90
935;DHT22;454;53.254;10.400;2023-12-22T19:01:15;4.20;99.90
935;DHT22;454;53.254;10.400;2023-12-22T19:03:42;4.30;99.90
935;DHT22;454;53.254;10.400;2023-12-22T19:06:09;4.30;99.90
935;DHT22;454;53.254;10.400;2023-12-22T19:08:37;4.30;99.90
935;DHT22;454;53.254;10.400;2023-12-22T19:11:04;4.30;99.90
935;DHT22;454;53.254;10.400;2023-12-22T19:13:31;4.30;99.90
935;DHT22;454;53.254;10.400;2023-12-22T19:15:58;4.30;99.90
935;DHT22;454;53.254;10.400;2023-12-22T19:18:25;4.30;99.90
935;DHT22;454;53.254;10.400;2023-12-22T19:20:52;4.30;99.90
935;DHT22;454;53.254;10.400;2023-12-22T19:23:19;4.30;99.90
935;DHT22;454;53.254;10.400;2023-12-22T19:25:48;4.30;99.90
935;DHT22;454;53.254;10.400;2023-12-22T19:28:14;4.40;99.90
935;DHT22;454;53.254;10.400;2023-12-22T19:30:41;4.30;99.90
935;DHT22;454;53.254;10.400;2023-12-22T19:33:09;4.40;99.90
935;DHT22;454;53.254;10.400;2023-12-22T19:35:36;4.40;99.90
935;DHT22;454;53.254;10.400;2023-12-22T19:38:03;4.40;99.90
935;DHT22;454;53.254;10.400;2023-12-22T19:40:31;4.40;99.90
935;DHT22;454;53.254;10.400;2023-12-22T19:42:59;4.40;99.90
935;DHT22;454;53.254;10.400;2023-12-22T19:45:26;4.40;99.90
935;DHT22;454;53.254;10.400;2023-12-22T19:47:53;4.40;99.90
935;DHT22;454;53.254;10.400;2023-12-22T19:50:20;4.40;99.90
935;DHT22;454;53.254;10.400;2023-12-22T19:52:47;4.30;99.90
935;DHT22;454;53.254;10.400;2023-12-22T19:55:13;4.40;99.90
935;DHT22;454;53.254;10.400;2023-12-22T19:57:40;4.40;99.90
935;DHT22;454;53.254;10.400;2023-12-22T20:00:10;4.40;99.90
935;DHT22;454;53.254;10.400;2023-12-22T20:02:37;4.40;99.90
935;DHT22;454;53.254;10.400;2023-12-22T20:05:04;4.40;99.90
935;DHT22;454;53.254;10.400;2023-12-22T20:07:31;4.40;99.90
935;DHT22;454;53.254;10.400;2023-12-22T20:09:58;4.40;99.90
935;DHT22;454;53.254;10.400;2023-12-22T20:12:24;4.40;99.90
935;DHT22;454;53.254;10.400;2023-12-22T20:14:51;4.50;99.90
935;DHT22;454;53.254;10.400;2023-12-22T20:17:19;4.50;99.90
935;DHT22;454;53.254;10.400;2023-12-22T20:19:46;4.40;99.90
935;DHT22;454;53.254;10.400;2023-12-22T20:22:13;4.40;99.90
935;DHT22;454;53.254;10.400;2023-12-22T20:24:40;4.40;99.90
935;DHT22;454;53.254;10.400;2023-12-22T20:27:06;4.40;99.90
935;DHT22;454;53.254;10.400;2023-12-22T20:29:33;4.40;99.90
935;DHT22;454;53.254;10.400;2023-12-22T20:32:00;4.40;99.90
935;DHT22;454;53.254;10.400;2023-12-22T20:34:29;4.40;99.90
935;DHT22;454;53.254;10.400;2023-12-22T20:36:56;4.40;99.90
935;DHT22;454;53.254;10.400;2023-12-22T20:39:22;4.40;99.90
935;DHT22;454;53.254;10.400;2023-12-22T20:41:49;4.40;99.90
935;DHT22;454;53.254;10.400;2023-12-22T20:44:16;4.30;99.90
935;DHT22;454;53.254;10.400;2023-12-22T20:46:43;4.30;99.90
935;DHT22;454;53.254;10.400;2023-12-22T20:49:10;4.30;99.90
935;DHT22;454;53.254;10.400;2023-12-22T20:51:41;4.30;99.90
935;DHT22;454;53.254;10.400;2023-12-22T20:54:08;4.40;99.90
935;DHT22;454;53.254;10.400;2023-12-22T20:56:35;4.40;99.90
935;DHT22;454;53.254;10.400;2023-12-22T20:59:02;4.40;99.90
935;DHT22;454;53.254;10.400;2023-12-22T21:01:29;4.40;99.90
935;DHT22;454;53.254;10.400;2023-12-22T21:03:55;4.30;99.90
935;DHT22;454;53.254;10.400;2023-12-22T21:06:22;4.30;99.90
935;DHT22;454;53.254;10.400;2023-12-22T21:08:50;4.20;99.90
935;DHT22;454;53.254;10.400;2023-12-22T21:11:20;4.10;99.90
935;DHT22;454;53.254;10.400;2023-12-22T21:13:47;4.10;99.90
935;DHT22;454;53.254;10.400;2023-12-22T21:16:14;4.10;99.90
935;DHT22;454;53.254;10.400;2023-12-22T21:18:40;4.10;99.90
935;DHT22;454;53.254;10.400;2023-12-22T21:21:07;4.10;99.90
935;DHT22;454;53.254;10.400;2023-12-22T21:23:34;4.10;99.90
935;DHT22;454;53.254;10.400;2023-12-22T21:26:02;4.10;99.90
935;DHT22;454;53.254;10.400;2023-12-22T21:28:29;4.10;99.90
935;DHT22;454;53.254;10.400;2023-12-22T21:30:55;4.00;99.90
935;DHT22;454;53.254;10.400;2023-12-22T21:33:22;4.10;99.90
935;DHT22;454;53.254;10.400;2023-12-22T21:35:49;4.10;99.90
935;DHT22;454;53.254;10.400;2023-12-22T21:38:15;4.10;99.90
935;DHT22;454;53.254;10.400;2023-12-22T21:40:42;4.10;99.90
935;DHT22;454;53.254;10.400;2023-12-22T21:43:10;4.20;99.90
935;DHT22;454;53.254;10.400;2023-12-22T21:45:37;4.20;99.90
935;DHT22;454;53.254;10.400;2023-12-22T21:48:04;4.20;99.90